ASN logo
ASN Wikibase Occurrence # 224475
Last updated: 12 August 2019
This information is added by users of ASN. Neither ASN nor the Flight Safety Foundation are responsible for the completeness or correctness of this information. If you feel this information is incomplete or incorrect, you can submit corrected information.

Date:29-APR-2019
Time:10:52 UTC
Type:Silhouette image of generic B738 model; specific model in this crash may look slightly different
Boeing 737-86J (WL)
Owner/operator:SpiceJet
Registration: VT-SGJ
C/n / msn: 29641
Fatalities:Fatalities: 0 / Occupants:
Other fatalities:0
Aircraft damage: Unknown
Location:Shirdi Airport (SAG/VASD) -   India
Phase: Landing
Nature:Domestic Scheduled Passenger
Departure airport:Delhi-Indira Gandhi International Airport (DEL/VIDP)
Destination airport:Shirdi Airport (SAG/VASD)
Narrative:
SpiceJet flight 945, a Boeing 737-800 aircraft suffered a runway excursion after landing on runway 09 at Shirdi Airport, India.


Weather reported about the incident time (1052Z):
VASD 291100Z 29006KT 6000 NSC 42/09 Q1007 NOSIG
VASD 291030Z 30007KT 6000 NSC 41/08 Q1008 NOSIG

Sources:

http://www.goklerdeyiz.net/spicejet-ucagi-pistten-cikti-2/
https://www.indiatoday.in/india/story/spicejet-plane-overshoots-runway-at-shirdi-airport-operations-affected-1512905-2019-04-29
https://www.flightradar24.com/data/aircraft/vt-sgj#20541fb8


Revision history:

Date/timeContributorUpdates
29-Apr-2019 12:22 Goklerdeyiz.net Added
29-Apr-2019 12:23 harro Updated [Time, Aircraft type, Operator, Other fatalities, Departure airport, Destination airport, Narrative]
29-Apr-2019 12:26 harro Updated [Location, Destination airport, Source, Narrative]
29-Apr-2019 12:29 harro Updated [Embed code]

Corrections or additions? ... Edit this accident description